| time (UTC) | temp F | wind direction | speed MPH | gust MPH | rain 1hr in | rain 24hr in | rain mn in | humidity % | barometer mb |
| 20260507105119 | 48 | 31 | 0.0 | 0.0 | 0.07 | 0.29 | 0.29 | 99 | 1005.9 |
| 20260507104617 | 48 | 33 | 0.0 | 0.0 | 0.12 | 0.29 | 0.29 | 99 | 1006.1 |
| 20260507104113 | 48 | 42 | 0.0 | 0.0 | 0.05 | 0.28 | 0.28 | 99 | 1005.7 |
| 20260507103609 | 48 | 9 | 0.0 | 1.0 | 0.00 | 0.27 | 0.27 | 99 | 1005.4 |
| 20260507103106 | 48 | 33 | 1.0 | 1.0 | 0.07 | 0.27 | 0.27 | 99 | 1005.7 |
| 20260507102603 | 48 | 20 | 0.0 | 0.0 | 0.19 | 0.27 | 0.27 | 99 | 1005.6 |
| 20260507102059 | 48 | 47 | 0.0 | 0.0 | 0.19 | 0.26 | 0.26 | 99 | 1005.7 |
| 20260507101555 | 49 | 40 | 0.0 | 0.0 | 0.07 | 0.24 | 0.24 | 99 | 1006.2 |
| 20260507101051 | 49 | 5 | 0.0 | 1.0 | 0.00 | 0.23 | 0.23 | 99 | 1005.9 |
| 20260507100548 | 49 | 355 | 0.0 | 1.0 | 0.00 | 0.23 | 0.23 | 99 | 1006.1 |
| 20260507100046 | 49 | 27 | 0.0 | 0.0 | 0.05 | 0.23 | 0.23 | 99 | 1005.9 |
| 20260507095544 | 49 | 26 | 0.0 | 1.0 | 0.05 | 0.23 | 0.23 | 99 | 1005.8 |
| 20260507095040 | 49 | 21 | 0.0 | 0.0 | 0.05 | 0.23 | 0.23 | 99 | 1005.8 |
| 20260507094536 | 49 | 310 | 2.0 | 2.0 | 0.07 | 0.22 | 0.22 | 99 | 1005.8 |
| 20260507094034 | 49 | 32 | 1.0 | 1.0 | 0.07 | 0.22 | 0.22 | 99 | 1005.5 |
| 20260507093531 | 49 | 34 | 0.0 | 0.0 | 0.00 | 0.21 | 0.21 | 99 | 1005.7 |
| 20260507093030 | 49 | 4 | 1.0 | 2.0 | 0.00 | 0.21 | 0.21 | 99 | 1005.2 |
| 20260507092526 | 49 | 6 | 0.0 | 0.0 | 0.00 | 0.21 | 0.21 | 99 | 1005.4 |
| 20260507092023 | 49 | 27 | 0.0 | 0.0 | 0.00 | 0.21 | 0.21 | 99 | 1005.5 |
| 20260507091519 | 49 | 25 | 0.0 | 0.0 | 0.00 | 0.21 | 0.21 | 99 | 1005.6 |
| 20260507091015 | 49 | 326 | 2.0 | 2.0 | 0.00 | 0.21 | 0.21 | 99 | 1005.2 |
| 20260507090511 | 49 | 9 | 1.0 | 1.0 | 0.00 | 0.21 | 0.21 | 99 | 1005.3 |
| 20260507090008 | 49 | 30 | 0.0 | 0.0 | 0.05 | 0.21 | 0.21 | 99 | 1005.5 |
| 20260507085505 | 49 | 329 | 1.0 | 1.0 | 0.05 | 0.21 | 0.21 | 99 | 1005.3 |
| 20260507085002 | 49 | 349 | 2.0 | 2.0 | 0.00 | 0.20 | 0.20 | 99 | 1005.4 |
| 20260507084459 | 49 | 48 | 0.0 | 1.0 | 0.00 | 0.20 | 0.20 | 98 | 1004.9 |
| 20260507083956 | 49 | 92 | 1.0 | 2.0 | 0.07 | 0.20 | 0.20 | 98 | 1005.2 |
| 20260507083452 | 49 | 334 | 2.0 | 2.0 | 0.07 | 0.20 | 0.20 | 98 | 1005.2 |
| 20260507082949 | 50 | 6 | 3.0 | 3.0 | 0.05 | 0.19 | 0.19 | 98 | 1005.1 |
| 20260507082445 | 50 | 16 | 1.0 | 1.0 | 0.05 | 0.19 | 0.19 | 97 | 1005.2 |
| 20260507081941 | 50 | 16 | 3.0 | 3.0 | 0.00 | 0.18 | 0.18 | 97 | 1005.1 |
| 20260507081438 | 50 | 350 | 1.0 | 1.0 | 0.07 | 0.18 | 0.18 | 97 | 1005.1 |
| 20260507080935 | 50 | 286 | 1.0 | 1.0 | 0.19 | 0.18 | 0.18 | 97 | 1005.2 |
| 20260507080431 | 50 | 7 | 1.0 | 1.0 | 0.17 | 0.17 | 0.17 | 97 | 1004.8 |
| 20260507075926 | 50 | 25 | 3.0 | 5.0 | 0.12 | 0.15 | 0.15 | 97 | 1005.4 |
| 20260507075423 | 50 | 19 | 1.0 | 1.0 | 0.07 | 0.14 | 0.14 | 97 | 1005.9 |
| 20260507074919 | 51 | 330 | 2.0 | 2.0 | 0.12 | 0.13 | 0.13 | 96 | 1005.6 |
| 20260507074416 | 51 | 353 | 2.0 | 2.0 | 0.35 | 0.13 | 0.13 | 95 | 1005.6 |
| 20260507073914 | 52 | 22 | 0.0 | 0.0 | 0.40 | 0.12 | 0.12 | 95 | 1005.6 |
| 20260507073410 | 52 | 103 | 1.0 | 2.0 | 0.35 | 0.08 | 0.08 | 93 | 1005.4 |
| 20260507072907 | 53 | 293 | 2.0 | 2.0 | 0.17 | 0.04 | 0.04 | 91 | 1005.4 |
| 20260507072405 | 54 | 307 | 2.0 | 2.0 | 0.12 | 0.02 | 0.02 | 86 | 1005.1 |
| 20260507071902 | 54 | 5 | 0.0 | 0.0 | 0.07 | 0.01 | 0.01 | 84 | 1004.7 |
| 20260507071359 | 54 | 53 | 0.0 | 0.0 | 0.00 | 0.00 | 0.00 | 84 | 1004.2 |
| 20260507070855 | 55 | 1 | 2.0 | 3.0 | 0.00 | 0.00 | 0.00 | 84 | 1004.2 |
| 20260507070353 | 55 | 304 | 2.0 | 2.0 | 0.00 | 0.00 | 0.00 | 85 | 1004.2 |
| 20260507065849 | 55 | 34 | 1.0 | 1.0 | 0.00 | 0.00 | 0.00 | 85 | 1004.2 |
| 20260507065346 | 55 | 351 | 1.0 | 2.0 | 0.00 | 0.00 | 0.00 | 85 | 1004.2 |
| 20260507064843 | 55 | 342 | 2.0 | 2.0 | 0.00 | 0.00 | 0.00 | 86 | 1004.1 |
| 20260507064342 | 55 | 58 | 2.0 | 3.0 | 0.00 | 0.00 | 0.00 | 90 | 1004.3 |
| 20260507063839 | 56 | 2 | 3.0 | 6.0 | 0.00 | 0.00 | 0.00 | 93 | 1004.5 |
| 20260507063336 | 56 | 14 | 3.0 | 3.0 | 0.00 | 0.00 | 0.00 | 93 | 1004.3 |
| 20260507062832 | 57 | 351 | 1.0 | 1.0 | 0.00 | 0.00 | 0.00 | 93 | 1004.2 |
| 20260507062329 | 57 | 350 | 2.0 | 2.0 | 0.00 | 0.00 | 0.00 | 93 | 1004.3 |
| 20260507061828 | 57 | 226 | 3.0 | 3.0 | 0.00 | 0.00 | 0.00 | 94 | 1004.3 |
| 20260507061325 | 57 | 287 | 1.0 | 2.0 | 0.00 | 0.00 | 0.00 | 94 | 1004.2 |
| 20260507060824 | 57 | 25 | 1.0 | 1.0 | 0.00 | 0.00 | 0.00 | 95 | 1004.3 |
| 20260507060320 | 57 | 28 | 2.0 | 2.0 | 0.00 | 0.00 | 0.00 | 95 | 1004.3 |
| 20260507055816 | 57 | 26 | 0.0 | 0.0 | 0.00 | 0.00 | 0.00 | 95 | 1004.5 |
| 20260507055311 | 58 | 350 | 1.0 | 2.0 | 0.00 | 0.00 | 0.00 | 95 | 1004.4 |
| 20260507054808 | 58 | 30 | 0.0 | 1.0 | 0.00 | 0.00 | 0.00 | 95 | 1004.7 |
| 20260507054304 | 58 | 26 | 1.0 | 1.0 | 0.00 | 0.00 | 0.00 | 95 | 1004.6 |
| 20260507053802 | 58 | 48 | 1.0 | 2.0 | 0.00 | 0.00 | 0.00 | 95 | 1004.5 |
| 20260507053300 | 58 | 339 | 1.0 | 2.0 | 0.00 | 0.00 | 0.00 | 94 | 1004.7 |
| 20260507052759 | 58 | 2 | 1.0 | 1.0 | 0.00 | 0.00 | 0.00 | 94 | 1004.7 |
| 20260507052254 | 58 | 32 | 0.0 | 1.0 | 0.00 | 0.00 | 0.00 | 94 | 1004.7 |
| 20260507051753 | 58 | 22 | 0.0 | 0.0 | 0.00 | 0.00 | 0.00 | 94 | 1004.8 |
| 20260507051249 | 58 | 20 | 0.0 | 1.0 | 0.00 | 0.00 | 0.00 | 94 | 1004.8 |
| 20260507050746 | 59 | 356 | 0.0 | 0.0 | 0.00 | 0.00 | 0.00 | 95 | 1004.7 |
| 20260507050243 | 59 | 326 | 1.0 | 1.0 | 0.00 | 0.00 | 0.00 | 95 | 1004.8 |
| 20260507045740 | 59 | 353 | 1.0 | 1.0 | 0.00 | 0.00 | 0.00 | 95 | 1004.8 |
| 20260507045236 | 59 | 330 | 1.0 | 1.0 | 0.00 | 0.00 | 0.00 | 96 | 1004.7 |
| 20260507044733 | 58 | 27 | 1.0 | 1.0 | 0.00 | 0.00 | 0.00 | 97 | 1004.9 |
| 20260507044229 | 59 | 293 | 2.0 | 2.0 | 0.00 | 0.00 | 0.00 | 97 | 1005.0 |
| 20260507043725 | 59 | 347 | 1.0 | 2.0 | 0.00 | 0.00 | 0.00 | 98 | 1004.8 |
| 20260507043223 | 59 | 334 | 1.0 | 1.0 | 0.00 | 0.00 | 0.00 | 98 | 1004.8 |
| 20260507042719 | 59 | 340 | 1.0 | 1.0 | 0.00 | 0.00 | 0.00 | 99 | 1004.8 |
| 20260507042214 | 59 | 240 | 1.0 | 1.0 | 0.00 | 0.00 | 0.00 | 99 | 1004.9 |
| 20260507041712 | 59 | 313 | 1.0 | 1.0 | 0.00 | 0.00 | 0.00 | 99 | 1005.0 |
| 20260507041208 | 59 | 335 | 1.0 | 1.0 | 0.00 | 0.00 | 0.00 | 99 | 1004.5 |
| 20260507040705 | 59 | 31 | 0.0 | 0.0 | 0.00 | 0.00 | 0.00 | 99 | 1004.8 |
| 20260507040201 | 59 | 29 | 0.0 | 0.0 | 0.00 | 0.00 | 0.00 | 99 | 1004.8 |
| 20260507035657 | 59 | 356 | 1.0 | 1.0 | 0.00 | 0.05 | 0.05 | 99 | 1004.8 |
| 20260507035153 | 58 | 36 | 0.0 | 0.0 | 0.00 | 0.05 | 0.05 | 99 | 1004.8 |
| 20260507034650 | 58 | 44 | 0.0 | 0.0 | 0.00 | 0.05 | 0.05 | 99 | 1004.8 |
| 20260507034148 | 58 | 34 | 0.0 | 0.0 | 0.00 | 0.05 | 0.05 | 99 | 1004.5 |
| 20260507033646 | 58 | 51 | 0.0 | 0.0 | 0.00 | 0.05 | 0.05 | 99 | 1004.7 |
| 20260507033143 | 58 | 42 | 0.0 | 1.0 | 0.00 | 0.05 | 0.05 | 99 | 1004.7 |
| 20260507032641 | 58 | 344 | 1.0 | 2.0 | 0.00 | 0.05 | 0.05 | 99 | 1005.1 |
| 20260507032136 | 58 | 316 | 0.0 | 1.0 | 0.00 | 0.05 | 0.05 | 99 | 1005.1 |
| 20260507031633 | 58 | 30 | 0.0 | 0.0 | 0.00 | 0.05 | 0.05 | 99 | 1004.8 |
| 20260507031130 | 58 | 319 | 0.0 | 1.0 | 0.00 | 0.05 | 0.05 | 99 | 1004.8 |
| 20260507030626 | 58 | 42 | 0.0 | 0.0 | 0.00 | 0.05 | 0.05 | 99 | 1004.7 |
| 20260507030125 | 58 | 38 | 0.0 | 0.0 | 0.00 | 0.05 | 0.05 | 99 | 1004.8 |
| 20260507025621 | 58 | 47 | 0.0 | 0.0 | 0.00 | 0.05 | 0.05 | 99 | 1004.5 |
| 20260507025118 | 58 | 47 | 0.0 | 0.0 | 0.00 | 0.05 | 0.05 | 99 | 1004.7 |
| 20260507024616 | 58 | 68 | 1.0 | 1.0 | 0.00 | 0.05 | 0.05 | 99 | 1004.7 |
| 20260507024108 | 58 | 45 | 0.0 | 0.0 | 0.00 | 0.05 | 0.05 | 99 | 1004.6 |
| 20260507023603 | 58 | 40 | 0.0 | 0.0 | 0.00 | 0.05 | 0.05 | 99 | 1004.7 |
| 20260507023101 | 58 | 31 | 0.0 | 1.0 | 0.00 | 0.05 | 0.05 | 99 | 1004.7 |
| 20260507022558 | 57 | 18 | 0.0 | 0.0 | 0.00 | 0.05 | 0.05 | 99 | 1004.9 |
| 20260507022053 | 57 | 23 | 0.0 | 0.0 | 0.00 | 0.05 | 0.05 | 99 | 1004.8 |
| 20260507021549 | 57 | 77 | 1.0 | 1.0 | 0.00 | 0.05 | 0.05 | 99 | 1004.8 |
| 20260507021045 | 57 | 20 | 1.0 | 1.0 | 0.00 | 0.05 | 0.05 | 99 | 1004.7 |
| 20260507020544 | 57 | 20 | 1.0 | 1.0 | 0.00 | 0.05 | 0.05 | 99 | 1004.6 |
| 20260507020039 | 57 | 34 | 0.0 | 1.0 | 0.00 | 0.05 | 0.05 | 99 | 1004.6 |
| 20260507015538 | 57 | 69 | 0.0 | 1.0 | 0.00 | 0.05 | 0.05 | 99 | 1004.6 |
| 20260507015035 | 57 | 31 | 0.0 | 0.0 | 0.00 | 0.05 | 0.05 | 99 | 1004.9 |
| 20260507014532 | 57 | 17 | 0.0 | 0.0 | 0.00 | 0.05 | 0.05 | 99 | 1004.8 |
| 20260507014027 | 57 | 33 | 0.0 | 0.0 | 0.00 | 0.05 | 0.05 | 99 | 1004.8 |
| 20260507013524 | 57 | 21 | 0.0 | 0.0 | 0.00 | 0.05 | 0.05 | 99 | 1004.8 |
| 20260507013022 | 57 | 37 | 0.0 | 0.0 | 0.00 | 0.05 | 0.05 | 99 | 1004.8 |
| 20260507012519 | 57 | 60 | 1.0 | 1.0 | 0.00 | 0.05 | 0.05 | 99 | 1004.9 |
| 20260507012015 | 57 | 7 | 1.0 | 2.0 | 0.00 | 0.05 | 0.05 | 99 | 1005.1 |
| 20260507011513 | 57 | 31 | 0.0 | 0.0 | 0.00 | 0.05 | 0.05 | 99 | 1005.1 |
| 20260507011008 | 57 | 43 | 0.0 | 0.0 | 0.00 | 0.05 | 0.05 | 99 | 1005.0 |
| 20260507010503 | 57 | 42 | 0.0 | 0.0 | 0.00 | 0.05 | 0.05 | 99 | 1005.0 |
| 20260507010000 | 57 | 50 | 0.0 | 0.0 | 0.00 | 0.05 | 0.05 | 99 | 1005.2 |
| 20260507005457 | 57 | 87 | 0.0 | 1.0 | 0.00 | 0.05 | 0.05 | 99 | 1005.2 |
| 20260507004953 | 57 | 25 | 0.0 | 1.0 | 0.00 | 0.05 | 0.05 | 99 | 1005.2 |
| 20260507004450 | 57 | 77 | 1.0 | 2.0 | 0.00 | 0.05 | 0.05 | 99 | 1005.2 |
| 20260507003948 | 57 | 358 | 2.0 | 3.0 | 0.00 | 0.05 | 0.05 | 99 | 1005.2 |
| 20260507003443 | 57 | 73 | 1.0 | 1.0 | 0.00 | 0.05 | 0.05 | 99 | 1005.0 |
| 20260507002938 | 57 | 57 | 1.0 | 2.0 | 0.00 | 0.05 | 0.05 | 99 | 1005.1 |
| 20260507002435 | 57 | 70 | 1.0 | 1.0 | 0.00 | 0.05 | 0.05 | 99 | 1005.0 |
| 20260507001932 | 57 | 262 | 1.0 | 1.0 | 0.00 | 0.05 | 0.05 | 99 | 1004.9 |
| 20260507001428 | 57 | 60 | 1.0 | 1.0 | 0.00 | 0.05 | 0.05 | 99 | 1005.1 |
| 20260507000926 | 57 | 40 | 0.0 | 0.0 | 0.00 | 0.05 | 0.05 | 99 | 1005.0 |
| 20260507000421 | 57 | 31 | 0.0 | 0.0 | 0.00 | 0.05 | 0.05 | 99 | 1005.0 |
| 20260506235917 | 57 | 45 | 1.0 | 1.0 | 0.00 | 0.05 | 0.05 | 99 | 1005.1 |
| 20260506235415 | 57 | 93 | 1.0 | 1.0 | 0.00 | 0.05 | 0.05 | 99 | 1005.0 |
| 20260506234910 | 57 | 42 | 0.0 | 1.0 | 0.00 | 0.05 | 0.05 | 99 | 1004.8 |
| 20260506234408 | 57 | 358 | 1.0 | 2.0 | 0.00 | 0.05 | 0.05 | 99 | 1004.8 |
| 20260506233906 | 57 | 27 | 0.0 | 0.0 | 0.00 | 0.05 | 0.05 | 99 | 1004.8 |
| 20260506233401 | 57 | 77 | 0.0 | 1.0 | 0.00 | 0.05 | 0.05 | 99 | 1004.9 |
| 20260506232858 | 57 | 26 | 0.0 | 1.0 | 0.00 | 0.05 | 0.05 | 99 | 1004.9 |
| 20260506232354 | 57 | 92 | 2.0 | 2.0 | 0.00 | 0.05 | 0.05 | 99 | 1004.8 |
| 20260506231850 | 57 | 245 | 1.0 | 2.0 | 0.00 | 0.05 | 0.05 | 99 | 1005.0 |
| 20260506231348 | 57 | 28 | 0.0 | 0.0 | 0.00 | 0.05 | 0.05 | 99 | 1005.0 |
| 20260506230846 | 57 | 25 | 0.0 | 1.0 | 0.00 | 0.05 | 0.05 | 99 | 1004.8 |
| 20260506230342 | 57 | 205 | 2.0 | 2.0 | 0.07 | 0.05 | 0.05 | 99 | 1004.8 |
| 20260506225838 | 57 | 96 | 2.0 | 2.0 | 0.07 | 0.05 | 0.05 | 99 | 1004.9 |
| 20260506225336 | 57 | 12 | 1.0 | 2.0 | 0.00 | 0.04 | 0.04 | 99 | 1004.9 |
| 20260506224833 | 57 | 14 | 0.0 | 0.0 | 0.00 | 0.04 | 0.04 | 99 | 1004.9 |
| 20260506224330 | 57 | 36 | 0.0 | 0.0 | 0.00 | 0.04 | 0.04 | 99 | 1004.9 |
| 20260506223826 | 57 | 60 | 1.0 | 1.0 | 0.00 | 0.04 | 0.04 | 99 | 1004.8 |
| 20260506223321 | 58 | 334 | 1.0 | 2.0 | 0.00 | 0.04 | 0.04 | 99 | 1004.6 |
| 20260506222819 | 58 | 74 | 1.0 | 1.0 | 0.00 | 0.04 | 0.04 | 99 | 1004.7 |
| 20260506222314 | 58 | 137 | 3.0 | 3.0 | 0.05 | 0.04 | 0.04 | 99 | 1004.8 |
| 20260506221813 | 58 | 57 | 0.0 | 1.0 | 0.05 | 0.04 | 0.04 | 99 | 1004.7 |
| 20260506221310 | 58 | 50 | 3.0 | 3.0 | 0.00 | 0.03 | 0.03 | 99 | 1004.8 |
| 20260506220807 | 58 | 328 | 1.0 | 1.0 | 0.00 | 0.03 | 0.03 | 99 | 1005.2 |
| 20260506220302 | 58 | 330 | 1.0 | 2.0 | 0.00 | 0.03 | 0.03 | 98 | 1005.0 |
| 20260506215759 | 59 | 24 | 2.0 | 2.0 | 0.00 | 0.03 | 0.03 | 98 | 1005.2 |
| 20260506215255 | 59 | 65 | 3.0 | 3.0 | 0.07 | 0.03 | 0.03 | 97 | 1005.2 |
| 20260506214751 | 59 | 335 | 1.0 | 2.0 | 0.07 | 0.03 | 0.03 | 97 | 1005.3 |
| 20260506214248 | 59 | 12 | 0.0 | 0.0 | 0.00 | 0.02 | 0.02 | 97 | 1005.1 |
| 20260506213746 | 59 | 61 | 1.0 | 1.0 | 0.00 | 0.02 | 0.02 | 96 | 1005.2 |
| 20260506213243 | 60 | 344 | 0.0 | 1.0 | 0.00 | 0.02 | 0.02 | 95 | 1005.3 |
| 20260506212740 | 60 | 314 | 2.0 | 2.0 | 0.00 | 0.02 | 0.02 | 95 | 1005.2 |
| 20260506212236 | 60 | 21 | 1.0 | 1.0 | 0.00 | 0.02 | 0.02 | 94 | 1005.4 |
| 20260506211731 | 60 | 298 | 4.0 | 6.0 | 0.00 | 0.02 | 0.02 | 94 | 1005.3 |
| 20260506211228 | 60 | 250 | 2.0 | 3.0 | 0.00 | 0.02 | 0.02 | 94 | 1005.4 |
| 20260506210725 | 60 | 91 | 2.0 | 3.0 | 0.00 | 0.02 | 0.02 | 94 | 1005.6 |
| 20260506210222 | 60 | 21 | 0.0 | 1.0 | 0.00 | 0.02 | 0.02 | 95 | 1005.4 |
| 20260506205719 | 60 | 29 | 2.0 | 2.0 | 0.00 | 0.02 | 0.02 | 95 | 1005.6 |
| 20260506205214 | 60 | 56 | 0.0 | 1.0 | 0.00 | 0.02 | 0.02 | 95 | 1005.5 |
| 20260506204712 | 60 | 336 | 1.0 | 3.0 | 0.05 | 0.02 | 0.02 | 95 | 1005.5 |
| 20260506204209 | 60 | 293 | 0.0 | 1.0 | 0.05 | 0.02 | 0.02 | 95 | 1005.7 |
| 20260506203707 | 60 | 69 | 1.0 | 2.0 | 0.00 | 0.01 | 0.01 | 95 | 1006.1 |
| 20260506203203 | 60 | 43 | 1.0 | 1.0 | 0.00 | 0.01 | 0.01 | 95 | 1005.7 |
| 20260506202702 | 60 | 25 | 0.0 | 0.0 | 0.00 | 0.01 | 0.01 | 94 | 1005.7 |
| 20260506202157 | 60 | 80 | 2.0 | 3.0 | 0.00 | 0.01 | 0.01 | 94 | 1005.8 |
| 20260506201654 | 60 | 18 | 2.0 | 3.0 | 0.00 | 0.01 | 0.01 | 94 | 1005.7 |
| 20260506201150 | 60 | 67 | 1.0 | 1.0 | 0.00 | 0.01 | 0.01 | 94 | 1005.8 |
| 20260506200648 | 60 | 125 | 2.0 | 3.0 | 0.00 | 0.01 | 0.01 | 93 | 1005.9 |
| 20260506200144 | 60 | 295 | 4.0 | 5.0 | 0.00 | 0.01 | 0.01 | 93 | 1006.1 |
| 20260506195641 | 60 | 207 | 3.0 | 5.0 | 0.00 | 0.01 | 0.01 | 93 | 1005.8 |
| 20260506195137 | 61 | 167 | 2.0 | 3.0 | 0.00 | 0.01 | 0.01 | 92 | 1005.8 |
| 20260506194635 | 61 | 351 | 1.0 | 1.0 | 0.00 | 0.01 | 0.01 | 92 | 1005.6 |
| 20260506194131 | 61 | 57 | 1.0 | 2.0 | 0.07 | 0.01 | 0.01 | 91 | 1006.1 |
| 20260506193629 | 61 | 108 | 1.0 | 2.0 | 0.07 | 0.01 | 0.01 | 90 | 1005.9 |
| 20260506193126 | 62 | 61 | 1.0 | 1.0 | 0.00 | 0.00 | 0.00 | 89 | 1006.2 |
| 20260506192622 | 62 | 80 | 2.0 | 2.0 | 0.00 | 0.00 | 0.00 | 87 | 1006.1 |
| 20260506192118 | 62 | 56 | 1.0 | 1.0 | 0.00 | 0.00 | 0.00 | 85 | 1006.2 |
| 20260506191615 | 63 | 215 | 1.0 | 2.0 | 0.00 | 0.00 | 0.00 | 85 | 1006.2 |
| 20260506191111 | 63 | 11 | 3.0 | 3.0 | 0.00 | 0.00 | 0.00 | 83 | 1006.2 |
| 20260506190609 | 64 | 82 | 1.0 | 2.0 | 0.00 | 0.00 | 0.00 | 83 | 1006.3 |
| 20260506190105 | 64 | 70 | 2.0 | 2.0 | 0.00 | 0.00 | 0.00 | 80 | 1006.3 |
| 20260506185603 | 64 | 72 | 2.0 | 2.0 | 0.00 | 0.00 | 0.00 | 78 | 1006.2 |
| 20260506185059 | 64 | 55 | 3.0 | 7.0 | 0.00 | 0.00 | 0.00 | 77 | 1006.5 |
| 20260506184556 | 65 | 82 | 2.0 | 3.0 | 0.00 | 0.00 | 0.00 | 77 | 1006.3 |
| 20260506184054 | 65 | 11 | 3.0 | 5.0 | 0.00 | 0.00 | 0.00 | 76 | 1006.2 |
| 20260506183549 | 65 | 108 | 2.0 | 2.0 | 0.00 | 0.00 | 0.00 | 75 | 1006.3 |
| 20260506183046 | 65 | 193 | 1.0 | 2.0 | 0.00 | 0.00 | 0.00 | 76 | 1006.5 |
| 20260506182544 | 66 | 307 | 4.0 | 6.0 | 0.00 | 0.00 | 0.00 | 74 | 1006.6 |
| 20260506182041 | 66 | 231 | 3.0 | 3.0 | 0.00 | 0.00 | 0.00 | 74 | 1006.5 |
| 20260506181539 | 66 | 77 | 1.0 | 1.0 | 0.00 | 0.00 | 0.00 | 73 | 1006.4 |
| 20260506181035 | 66 | 70 | 1.0 | 1.0 | 0.00 | 0.00 | 0.00 | 74 | 1006.6 |
| 20260506180532 | 67 | 212 | 3.0 | 3.0 | 0.00 | 0.00 | 0.00 | 72 | 1006.2 |
| 20260506180028 | 67 | 322 | 1.0 | 2.0 | 0.00 | 0.00 | 0.00 | 72 | 1006.6 |
| 20260506175525 | 67 | 331 | 2.0 | 2.0 | 0.00 | 0.00 | 0.00 | 72 | 1006.6 |
| 20260506175021 | 68 | 136 | 2.0 | 3.0 | 0.00 | 0.00 | 0.00 | 71 | 1006.7 |
| 20260506174520 | 68 | 7 | 3.0 | 3.0 | 0.00 | 0.00 | 0.00 | 70 | 1006.6 |
| 20260506174016 | 69 | 16 | 3.0 | 5.0 | 0.00 | 0.00 | 0.00 | 70 | 1006.7 |
| 20260506173514 | 69 | 102 | 3.0 | 6.0 | 0.00 | 0.00 | 0.00 | 69 | 1006.9 |
| 20260506173010 | 69 | 48 | 2.0 | 2.0 | 0.00 | 0.00 | 0.00 | 68 | 1006.8 |
| 20260506172508 | 69 | 273 | 2.0 | 3.0 | 0.00 | 0.00 | 0.00 | 69 | 1007.0 |
| 20260506172004 | 70 | 52 | 4.0 | 5.0 | 0.00 | 0.00 | 0.00 | 67 | 1006.9 |
| 20260506171501 | 71 | 246 | 2.0 | 3.0 | 0.00 | 0.00 | 0.00 | 66 | 1007.1 |
| 20260506170959 | 70 | 264 | 3.0 | 5.0 | 0.00 | 0.00 | 0.00 | 68 | 1006.9 |
| 20260506170455 | 70 | 72 | 3.0 | 5.0 | 0.00 | 0.00 | 0.00 | 67 | 1006.8 |
| 20260506165948 | 71 | 106 | 3.0 | 3.0 | 0.00 | 0.00 | 0.00 | 64 | 1006.8 |
| 20260506165447 | 72 | 20 | 3.0 | 5.0 | 0.00 | 0.00 | 0.00 | 65 | 1006.8 |
| 20260506164942 | 72 | 304 | 3.0 | 5.0 | 0.00 | 0.00 | 0.00 | 63 | 1006.8 |
| 20260506164439 | 71 | 173 | 3.0 | 5.0 | 0.00 | 0.00 | 0.00 | 66 | 1007.0 |
| 20260506163937 | 71 | 83 | 4.0 | 5.0 | 0.00 | 0.00 | 0.00 | 66 | 1007.2 |
| 20260506163431 | 71 | 64 | 2.0 | 3.0 | 0.00 | 0.00 | 0.00 | 66 | 1007.4 |
| 20260506162926 | 71 | 10 | 1.0 | 2.0 | 0.00 | 0.00 | 0.00 | 66 | 1007.3 |
| 20260506162424 | 71 | 271 | 4.0 | 6.0 | 0.00 | 0.00 | 0.00 | 66 | 1007.6 |
| 20260506161921 | 71 | 101 | 3.0 | 5.0 | 0.00 | 0.00 | 0.00 | 64 | 1007.5 |
| 20260506161420 | 71 | 287 | 1.0 | 2.0 | 0.00 | 0.00 | 0.00 | 67 | 1007.4 |
| 20260506160911 | 71 | 166 | 3.0 | 5.0 | 0.00 | 0.00 | 0.00 | 65 | 1007.6 |
| 20260506160408 | 71 | 38 | 1.0 | 1.0 | 0.00 | 0.00 | 0.00 | 66 | 1007.7 |
| 20260506155906 | 71 | 85 | 3.0 | 5.0 | 0.00 | 0.00 | 0.00 | 66 | 1007.6 |
| 20260506155403 | 72 | 351 | 1.0 | 1.0 | 0.00 | 0.00 | 0.00 | 66 | 1007.7 |
| 20260506153525 | 72 | 62 | 3.0 | 3.0 | 0.00 | 0.00 | 0.00 | 65 | 1007.7 |
| 20260506153023 | 73 | 116 | 1.0 | 1.0 | 0.00 | 0.00 | 0.00 | 66 | 1007.9 |
| 20260506152519 | 72 | 359 | 2.0 | 3.0 | 0.00 | 0.00 | 0.00 | 64 | 1008.0 |
| 20260506152018 | 72 | 56 | 1.0 | 1.0 | 0.00 | 0.00 | 0.00 | 67 | 1008.0 |
| 20260506151515 | 72 | 220 | 4.0 | 7.0 | 0.00 | 0.00 | 0.00 | 64 | 1008.2 |
| 20260506151012 | 71 | 311 | 2.0 | 3.0 | 0.00 | 0.00 | 0.00 | 65 | 1008.2 |
| 20260506150508 | 71 | 125 | 4.0 | 6.0 | 0.00 | 0.00 | 0.00 | 67 | 1008.3 |
| 20260506150005 | 70 | 202 | 5.0 | 6.0 | 0.00 | 0.00 | 0.00 | 67 | 1008.2 |
| 20260506145502 | 71 | 76 | 1.0 | 2.0 | 0.00 | 0.00 | 0.00 | 68 | 1008.3 |
| 20260506144959 | 70 | 331 | 1.0 | 1.0 | 0.00 | 0.00 | 0.00 | 67 | 1008.2 |
| 20260506144456 | 70 | 240 | 2.0 | 2.0 | 0.00 | 0.00 | 0.00 | 70 | 1008.1 |
| 20260506143954 | 70 | 91 | 1.0 | 2.0 | 0.00 | 0.00 | 0.00 | 67 | 1008.2 |
| 20260506143451 | 70 | 65 | 1.0 | 2.0 | 0.00 | 0.00 | 0.00 | 68 | 1008.0 |
| 20260506142949 | 70 | 90 | 3.0 | 3.0 | 0.00 | 0.00 | 0.00 | 67 | 1008.2 |
| 20260506142446 | 70 | 203 | 3.0 | 3.0 | 0.00 | 0.00 | 0.00 | 68 | 1007.9 |
| 20260506141944 | 70 | 48 | 1.0 | 2.0 | 0.00 | 0.00 | 0.00 | 67 | 1007.8 |
| 20260506141442 | 71 | 65 | 2.0 | 2.0 | 0.00 | 0.00 | 0.00 | 66 | 1008.0 |
| 20260506140941 | 71 | 160 | 3.0 | 3.0 | 0.00 | 0.00 | 0.00 | 65 | 1008.2 |
| 20260506140437 | 71 | 115 | 0.0 | 1.0 | 0.00 | 0.00 | 0.00 | 66 | 1008.1 |
| 20260506135934 | 71 | 94 | 3.0 | 5.0 | 0.00 | 0.00 | 0.00 | 65 | 1008.0 |
| 20260506135431 | 70 | 83 | 3.0 | 3.0 | 0.00 | 0.00 | 0.00 | 67 | 1008.0 |
| 20260506134927 | 70 | 330 | 2.0 | 3.0 | 0.00 | 0.00 | 0.00 | 67 | 1007.8 |
| 20260506134423 | 69 | 65 | 1.0 | 2.0 | 0.00 | 0.00 | 0.00 | 68 | 1008.0 |
| 20260506133920 | 69 | 129 | 3.0 | 5.0 | 0.00 | 0.00 | 0.00 | 68 | 1008.1 |
| 20260506133417 | 70 | 10 | 2.0 | 2.0 | 0.00 | 0.00 | 0.00 | 67 | 1008.3 |
| 20260506132914 | 70 | 101 | 5.0 | 7.0 | 0.00 | 0.00 | 0.00 | 69 | 1008.6 |
| 20260506132411 | 70 | 24 | 0.0 | 1.0 | 0.00 | 0.00 | 0.00 | 72 | 1008.5 |
| 20260506131909 | 69 | 200 | 1.0 | 2.0 | 0.00 | 0.00 | 0.00 | 71 | 1008.7 |
| 20260506131405 | 68 | 255 | 3.0 | 5.0 | 0.00 | 0.00 | 0.00 | 71 | 1008.7 |
| 20260506130902 | 68 | 279 | 1.0 | 2.0 | 0.00 | 0.00 | 0.00 | 74 | 1008.8 |
| 20260506130358 | 66 | 60 | 0.0 | 1.0 | 0.00 | 0.00 | 0.00 | 75 | 1008.7 |
| 20260506125856 | 67 | 315 | 1.0 | 2.0 | 0.00 | 0.00 | 0.00 | 75 | 1008.7 |
| 20260506125355 | 67 | 71 | 1.0 | 2.0 | 0.00 | 0.00 | 0.00 | 76 | 1008.7 |
| 20260506124853 | 65 | 87 | 2.0 | 2.0 | 0.00 | 0.00 | 0.00 | 77 | 1008.8 |
| 20260506124349 | 65 | 244 | 4.0 | 7.0 | 0.00 | 0.00 | 0.00 | 77 | 1008.8 |
| 20260506123847 | 64 | 28 | 2.0 | 2.0 | 0.00 | 0.00 | 0.00 | 79 | 1008.7 |
| 20260506123345 | 64 | 32 | 0.0 | 0.0 | 0.00 | 0.00 | 0.00 | 81 | 1008.8 |
| 20260506122842 | 64 | 90 | 2.0 | 2.0 | 0.00 | 0.00 | 0.00 | 80 | 1008.8 |
| 20260506122339 | 64 | 237 | 2.0 | 2.0 | 0.00 | 0.00 | 0.00 | 80 | 1008.8 |
| 20260506121837 | 64 | 216 | 2.0 | 2.0 | 0.00 | 0.00 | 0.00 | 80 | 1008.8 |
| 20260506121334 | 64 | 91 | 2.0 | 3.0 | 0.00 | 0.00 | 0.00 | 79 | 1008.6 |
| 20260506120831 | 64 | 201 | 1.0 | 1.0 | 0.00 | 0.00 | 0.00 | 81 | 1008.8 |
| 20260506120329 | 63 | 64 | 2.0 | 2.0 | 0.00 | 0.00 | 0.00 | 82 | 1008.8 |
| 20260506115826 | 62 | 88 | 1.0 | 2.0 | 0.00 | 0.00 | 0.00 | 82 | 1009.2 |
| 20260506115324 | 61 | 76 | 1.0 | 1.0 | 0.00 | 0.00 | 0.00 | 84 | 1009.2 |
| 20260506114822 | 60 | 42 | 0.0 | 0.0 | 0.00 | 0.00 | 0.00 | 87 | 1009.3 |
| 20260506114319 | 60 | 75 | 1.0 | 1.0 | 0.00 | 0.00 | 0.00 | 87 | 1009.5 |
| 20260506113818 | 61 | 291 | 2.0 | 3.0 | 0.00 | 0.00 | 0.00 | 86 | 1009.2 |
| 20260506113315 | 61 | 286 | 3.0 | 5.0 | 0.00 | 0.00 | 0.00 | 85 | 1009.3 |
| 20260506112811 | 61 | 73 | 1.0 | 1.0 | 0.00 | 0.00 | 0.00 | 85 | 1009.5 |
| 20260506112309 | 61 | 100 | 2.0 | 2.0 | 0.00 | 0.00 | 0.00 | 85 | 1009.2 |
| 20260506111806 | 61 | 88 | 2.0 | 2.0 | 0.00 | 0.00 | 0.00 | 85 | 1009.4 |
| 20260506111304 | 60 | 92 | 1.0 | 1.0 | 0.00 | 0.00 | 0.00 | 87 | 1009.4 |
| 20260506110801 | 59 | 48 | 0.0 | 1.0 | 0.00 | 0.00 | 0.00 | 89 | 1009.2 |
| 20260506110258 | 58 | 246 | 2.0 | 3.0 | 0.00 | 0.00 | 0.00 | 91 | 1009.3 |
| 20260506105755 | 58 | 78 | 0.0 | 1.0 | 0.00 | 0.00 | 0.00 | 92 | 1009.3 |